createdAt,value
2022-12-06T00:01:05.606Z,537.95
2022-12-06T00:03:32.371Z,532.25
2022-12-06T00:06:08.490Z,534.47
2022-12-06T00:08:35.742Z,532.47
2022-12-06T00:11:04.982Z,533.10
2022-12-06T00:13:31.644Z,522.97
2022-12-06T00:16:03.586Z,534.53
2022-12-06T00:18:32.065Z,521.10
2022-12-06T00:21:16.129Z,531.38
2022-12-06T00:23:45.712Z,531.38
2022-12-06T00:26:13.143Z,539.10
2022-12-06T00:28:40.030Z,532.03
2022-12-06T00:31:13.791Z,535.75
2022-12-06T00:33:40.891Z,527.15
2022-12-06T00:36:11.696Z,526.03
2022-12-06T00:38:38.526Z,519.40
2022-12-06T00:41:12.486Z,524.20
2022-12-06T00:43:40.023Z,525.28
2022-12-06T00:46:08.441Z,522.78
2022-12-06T00:48:35.204Z,528.38
2022-12-06T00:51:01.819Z,530.37
2022-12-06T00:53:28.795Z,529.80
2022-12-06T00:55:55.435Z,529.73
2022-12-06T00:58:23.121Z,527.60
2022-12-06T01:00:51.233Z,538.15
2022-12-06T01:03:17.950Z,530.20
2022-12-06T01:05:49.815Z,525.15
2022-12-06T01:08:17.610Z,523.72
2022-12-06T01:10:54.132Z,520.17
2022-12-06T01:13:21.084Z,521.53
2022-12-06T01:15:47.928Z,527.40
2022-12-06T01:18:14.684Z,531.03
2022-12-06T01:20:41.278Z,520.92
2022-12-06T01:23:07.970Z,530.27
2022-12-06T01:25:36.380Z,523.28
2022-12-06T01:28:03.844Z,533.60
2022-12-06T01:30:30.967Z,530.03
2022-12-06T01:32:57.599Z,528.42
2022-12-06T01:35:24.178Z,532.10
2022-12-06T01:37:50.808Z,532.05
2022-12-06T01:40:17.343Z,523.00
2022-12-06T01:42:43.953Z,529.33
2022-12-06T01:45:10.799Z,523.83
2022-12-06T01:47:43.089Z,530.83
2022-12-06T01:50:23.186Z,515.13
2022-12-06T01:53:25.283Z,517.08
2022-12-06T01:55:53.110Z,521.13
2022-12-06T01:58:25.180Z,521.10
2022-12-06T02:00:51.938Z,513.72
2022-12-06T02:03:22.617Z,522.40
2022-12-06T02:05:49.502Z,527.07
2022-12-06T02:08:17.576Z,526.47
2022-12-06T02:10:44.249Z,535.22
2022-12-06T02:13:11.194Z,521.75
2022-12-06T02:15:49.021Z,522.38
2022-12-06T02:18:42.632Z,525.53
2022-12-06T02:21:09.145Z,525.58
2022-12-06T02:23:58.107Z,526.43
2022-12-06T02:26:30.584Z,520.20
2022-12-06T02:29:00.143Z,520.40
2022-12-06T02:31:45.402Z,524.80
2022-12-06T02:34:18.534Z,520.75
2022-12-06T02:37:02.755Z,528.55
2022-12-06T02:40:07.520Z,529.53
2022-12-06T02:42:40.404Z,522.20
2022-12-06T02:45:19.183Z,528.58
2022-12-06T02:47:48.820Z,534.05
2022-12-06T02:50:22.602Z,529.72
2022-12-06T02:52:53.779Z,533.90
2022-12-06T02:55:23.614Z,528.10
2022-12-06T02:57:53.259Z,524.60
2022-12-06T03:00:28.992Z,526.90
2022-12-06T03:03:06.354Z,520.40
2022-12-06T03:05:41.264Z,518.13
2022-12-06T03:08:18.543Z,522.93
2022-12-06T03:10:50.721Z,522.45
2022-12-06T03:14:02.514Z,525.53
2022-12-06T03:16:34.899Z,519.17
2022-12-06T03:19:12.010Z,526.15
2022-12-06T03:21:50.617Z,518.10
2022-12-06T03:24:17.450Z,514.50
2022-12-06T03:26:48.298Z,523.25
2022-12-06T03:29:18.590Z,528.83
2022-12-06T03:31:46.895Z,524.78
2022-12-06T03:34:17.307Z,534.60
2022-12-06T03:36:46.557Z,526.55
2022-12-06T03:39:16.185Z,526.67
2022-12-06T03:41:48.453Z,523.05
2022-12-06T03:44:15.315Z,534.30
2022-12-06T03:46:48.671Z,532.03
2022-12-06T03:49:21.513Z,531.10
2022-12-06T03:51:48.486Z,537.10
2022-12-06T03:54:16.146Z,521.70
2022-12-06T03:56:42.872Z,533.55
2022-12-06T03:59:11.212Z,524.00
2022-12-06T04:01:38.944Z,527.78
2022-12-06T04:04:06.183Z,534.42
2022-12-06T04:06:33.225Z,537.77
2022-12-06T04:09:18.478Z,532.08
2022-12-06T04:11:45.584Z,537.60
2022-12-06T04:14:12.297Z,544.00
2022-12-06T04:16:57.112Z,543.23
2022-12-06T04:19:23.727Z,540.20
2022-12-06T04:22:08.647Z,540.42
2022-12-06T04:24:35.244Z,541.47
2022-12-06T04:27:20.768Z,543.40
2022-12-06T04:30:06.013Z,530.25
2022-12-06T04:32:51.245Z,513.83
2022-12-06T04:35:36.558Z,533.35
2022-12-06T04:38:21.888Z,529.47
2022-12-06T04:40:48.649Z,519.55
2022-12-06T04:43:33.924Z,535.40
2022-12-06T04:46:00.590Z,521.63
2022-12-06T04:48:27.176Z,524.53
2022-12-06T04:50:53.756Z,527.85
2022-12-06T04:53:20.284Z,527.40
2022-12-06T04:55:47.777Z,532.28
2022-12-06T04:58:15.711Z,529.42
2022-12-06T05:00:43.722Z,533.92
2022-12-06T05:03:11.770Z,516.25
2022-12-06T05:05:38.573Z,516.10
2022-12-06T05:08:05.598Z,517.70
2022-12-06T05:10:33.220Z,517.03
2022-12-06T05:13:00.564Z,512.35
2022-12-06T05:15:29.357Z,506.20
2022-12-06T05:17:56.224Z,506.00
2022-12-06T05:20:23.447Z,506.05
2022-12-06T05:22:50.333Z,508.95
2022-12-06T05:25:17.189Z,509.88
2022-12-06T05:27:44.754Z,511.63
2022-12-06T05:30:11.938Z,509.35
2022-12-06T05:32:40.108Z,515.05
2022-12-06T05:35:07.566Z,505.85
2022-12-06T05:37:34.119Z,504.38
2022-12-06T05:40:00.887Z,510.58
2022-12-06T05:42:27.720Z,515.33
2022-12-06T05:44:54.301Z,515.72
2022-12-06T05:47:21.020Z,506.45
2022-12-06T05:49:47.662Z,517.10
2022-12-06T05:52:14.360Z,507.95
2022-12-06T05:54:40.990Z,501.20
2022-12-06T05:57:07.590Z,506.57
2022-12-06T05:59:34.234Z,514.65
2022-12-06T06:02:01.089Z,513.10
2022-12-06T06:04:27.807Z,515.97
2022-12-06T06:06:54.576Z,525.85
2022-12-06T06:09:21.382Z,517.42
2022-12-06T06:11:47.909Z,522.35
2022-12-06T06:14:14.899Z,518.22
2022-12-06T06:16:41.597Z,533.72
2022-12-06T06:19:08.326Z,520.40
2022-12-06T06:21:34.897Z,523.05
2022-12-06T06:24:01.848Z,531.50
2022-12-06T06:26:28.974Z,529.03
2022-12-06T06:28:55.809Z,540.97
2022-12-06T06:31:22.440Z,537.65
2022-12-06T06:33:49.104Z,537.63
2022-12-06T06:36:15.792Z,522.22
2022-12-06T06:38:42.483Z,517.45
2022-12-06T06:41:09.175Z,522.08
2022-12-06T06:43:35.956Z,522.13
2022-12-06T06:46:06.962Z,520.08
2022-12-06T06:48:36.854Z,531.33
2022-12-06T06:51:08.708Z,519.25
2022-12-06T06:53:40.158Z,527.95
2022-12-06T06:56:07.591Z,516.78
2022-12-06T06:58:34.441Z,525.63
2022-12-06T07:01:03.231Z,531.17
2022-12-06T07:03:30.281Z,534.43
2022-12-06T07:05:59.659Z,514.00
2022-12-06T07:08:29.505Z,520.10
2022-12-06T07:10:56.467Z,510.17
2022-12-06T07:13:24.579Z,502.25
2022-12-06T07:15:51.701Z,505.25
2022-12-06T07:18:19.527Z,502.40
2022-12-06T07:20:47.645Z,509.48
2022-12-06T07:23:15.272Z,509.00
2022-12-06T07:25:41.991Z,505.70
2022-12-06T07:28:08.700Z,511.27
2022-12-06T07:30:35.524Z,496.47
2022-12-06T07:33:02.385Z,499.23
2022-12-06T07:35:48.392Z,504.67
2022-12-06T07:38:15.860Z,499.08
2022-12-06T07:43:47.872Z,502.35
2022-12-06T07:46:14.568Z,490.05
2022-12-06T07:48:41.169Z,492.50
2022-12-06T07:51:07.837Z,493.40
2022-12-06T07:53:34.620Z,481.90
2022-12-06T07:56:08.531Z,492.00
2022-12-06T07:58:35.398Z,499.35
2022-12-06T08:01:04.464Z,480.73
2022-12-06T08:03:31.731Z,497.93
2022-12-06T08:05:58.490Z,489.70
2022-12-06T08:08:28.789Z,480.63
2022-12-06T08:10:59.960Z,469.50
2022-12-06T08:13:27.063Z,464.13
2022-12-06T08:15:53.845Z,468.63
2022-12-06T08:18:21.061Z,470.67
2022-12-06T08:20:48.099Z,466.38
2022-12-06T08:23:14.863Z,473.80
2022-12-06T08:25:41.537Z,480.67
2022-12-06T08:28:08.188Z,480.98
2022-12-06T08:30:35.028Z,493.17
2022-12-06T08:33:01.838Z,483.63
2022-12-06T08:35:28.577Z,471.98
2022-12-06T08:37:55.294Z,479.73
2022-12-06T08:40:22.176Z,477.33
2022-12-06T08:42:56.399Z,471.80
2022-12-06T08:45:23.077Z,468.48
2022-12-06T08:47:49.675Z,463.67
2022-12-06T08:50:16.246Z,454.38
2022-12-06T08:52:42.930Z,449.25
2022-12-06T08:55:09.730Z,424.10
2022-12-06T08:57:36.404Z,397.40
2022-12-06T09:00:05.875Z,380.97
2022-12-06T09:02:32.474Z,360.90
2022-12-06T09:04:59.197Z,356.20
2022-12-06T09:07:26.602Z,341.90
2022-12-06T09:09:54.706Z,326.60
2022-12-06T09:12:21.889Z,325.52
2022-12-06T09:14:48.525Z,317.52
2022-12-06T09:17:15.305Z,322.00
2022-12-06T09:19:42.071Z,313.75
2022-12-06T09:22:08.722Z,320.45
2022-12-06T09:24:35.387Z,340.45
2022-12-06T09:27:02.068Z,315.17
2022-12-06T09:29:28.860Z,322.08
2022-12-06T09:31:55.556Z,309.70
2022-12-06T09:34:22.284Z,307.92
2022-12-06T09:37:08.097Z,304.13
2022-12-06T09:39:39.525Z,301.85
2022-12-06T09:42:12.121Z,330.95
2022-12-06T09:44:53.694Z,306.80
2022-12-06T09:47:32.368Z,313.50
2022-12-06T09:50:26.634Z,309.83
2022-12-06T09:53:21.354Z,303.75
2022-12-06T09:56:00.616Z,284.10
2022-12-06T09:58:51.871Z,294.27
2022-12-06T10:01:36.701Z,295.25
2022-12-06T10:04:29.374Z,291.90
2022-12-06T10:07:19.996Z,304.38
2022-12-06T10:10:03.334Z,307.80
2022-12-06T10:12:48.452Z,297.00
2022-12-06T10:15:46.399Z,284.83
2022-12-06T10:18:21.017Z,312.70
2022-12-06T10:21:24.567Z,301.33
2022-12-06T10:24:13.825Z,297.50
2022-12-06T10:26:51.883Z,294.23
2022-12-06T10:29:29.705Z,297.30
2022-12-06T10:32:05.999Z,304.25
2022-12-06T10:34:58.288Z,317.10
2022-12-06T10:37:59.905Z,299.70
2022-12-06T10:40:45.203Z,299.95
2022-12-06T10:43:25.433Z,316.92
2022-12-06T10:46:24.096Z,320.65
2022-12-06T10:49:09.169Z,309.15
2022-12-06T10:51:56.315Z,322.88
2022-12-06T10:54:33.648Z,292.75
2022-12-06T10:57:06.338Z,307.10
2022-12-06T10:59:54.476Z,308.80
2022-12-06T11:02:53.688Z,300.33
2022-12-06T11:05:30.568Z,311.70
2022-12-06T11:08:11.894Z,305.42
2022-12-06T11:10:42.040Z,316.60
2022-12-06T11:13:31.077Z,310.90
2022-12-06T11:16:05.846Z,304.65
2022-12-06T11:18:34.035Z,297.80
2022-12-06T11:21:03.710Z,315.03
2022-12-06T11:23:50.947Z,303.67
2022-12-06T11:26:41.813Z,319.15
2022-12-06T11:29:14.030Z,325.15
2022-12-06T11:31:50.807Z,306.10
2022-12-06T11:34:17.588Z,300.85
2022-12-06T11:36:45.268Z,314.73
2022-12-06T11:39:13.836Z,300.30
2022-12-06T11:41:43.508Z,306.20
2022-12-06T11:44:18.958Z,294.25
2022-12-06T11:46:50.320Z,312.65
2022-12-06T11:49:39.992Z,308.90
2022-12-06T11:52:12.842Z,311.42
2022-12-06T11:54:55.164Z,324.20
2022-12-06T11:57:50.598Z,324.05
2022-12-06T12:00:23.912Z,326.88
2022-12-06T12:02:53.761Z,319.58
2022-12-06T12:05:24.143Z,327.95
2022-12-06T12:08:00.000Z,332.13
2022-12-06T12:10:32.928Z,329.25
2022-12-06T12:13:45.531Z,326.08
2022-12-06T12:16:15.155Z,325.40
2022-12-06T12:18:49.877Z,317.25
2022-12-06T12:21:17.548Z,312.88
2022-12-06T12:23:46.840Z,322.70
2022-12-06T12:26:17.017Z,324.40
2022-12-06T12:28:46.053Z,314.85
2022-12-06T12:31:24.492Z,316.35
2022-12-06T12:34:25.809Z,314.73
2022-12-06T12:36:56.871Z,325.07
2022-12-06T12:39:45.351Z,310.52
2022-12-06T12:42:29.908Z,317.83
2022-12-06T12:45:00.110Z,315.63
2022-12-06T12:47:27.302Z,308.33
2022-12-06T12:50:02.039Z,315.90
2022-12-06T12:52:37.629Z,325.23
2022-12-06T12:55:13.475Z,320.55
2022-12-06T12:57:45.026Z,313.58
2022-12-06T13:00:37.302Z,323.13
2022-12-06T13:03:28.561Z,312.88
2022-12-06T13:06:00.082Z,331.25
2022-12-06T13:08:33.900Z,311.98
2022-12-06T13:11:03.366Z,314.30
2022-12-06T13:13:43.639Z,299.65
2022-12-06T13:16:18.361Z,319.70
2022-12-06T13:18:52.746Z,309.00
2022-12-06T13:21:31.889Z,313.98
2022-12-06T13:24:10.848Z,305.60
2022-12-06T13:26:43.236Z,314.60
2022-12-06T13:29:23.526Z,288.10
2022-12-06T13:31:53.665Z,307.80
2022-12-06T13:34:23.222Z,312.90
2022-12-06T13:36:52.268Z,310.67
2022-12-06T13:39:30.965Z,297.27
2022-12-06T13:42:18.349Z,312.67
2022-12-06T13:44:48.211Z,315.88
2022-12-06T13:47:27.119Z,302.95
2022-12-06T13:49:54.801Z,313.80
2022-12-06T13:52:43.276Z,307.48
2022-12-06T13:55:25.096Z,322.65
2022-12-06T13:58:04.024Z,314.27
2022-12-06T14:00:30.667Z,343.90
2022-12-06T14:02:59.442Z,310.67
2022-12-06T14:08:52.042Z,314.45
2022-12-06T14:11:33.947Z,317.08
2022-12-06T14:14:08.877Z,313.13
2022-12-06T14:16:56.981Z,313.23
2022-12-06T14:19:46.973Z,317.00
2022-12-06T14:22:28.539Z,322.35
2022-12-06T14:25:08.044Z,308.65
2022-12-06T14:27:49.176Z,311.35
2022-12-06T14:30:26.393Z,300.52
2022-12-06T14:32:58.635Z,309.75
2022-12-06T14:35:37.283Z,312.13
2022-12-06T14:38:25.231Z,309.35
2022-12-06T14:41:11.040Z,319.08
2022-12-06T14:43:39.724Z,318.92
2022-12-06T14:46:15.615Z,324.67
2022-12-06T14:49:02.486Z,362.05
2022-12-06T14:51:38.555Z,304.20
2022-12-06T14:54:18.163Z,317.17
2022-12-06T14:56:45.240Z,316.02
2022-12-06T14:59:12.762Z,299.20
2022-12-06T15:01:51.075Z,320.30
2022-12-06T15:04:26.587Z,313.63
2022-12-06T15:06:56.013Z,315.33
2022-12-06T15:09:23.005Z,322.15
2022-12-06T15:12:08.249Z,326.58
2022-12-06T15:14:35.606Z,325.10
2022-12-06T15:17:08.200Z,313.60
2022-12-06T15:19:38.882Z,314.05
2022-12-06T15:22:19.936Z,318.55
2022-12-06T15:24:51.872Z,318.15
2022-12-06T15:27:20.305Z,328.23
2022-12-06T15:29:47.348Z,321.27
2022-12-06T15:32:19.016Z,317.60
2022-12-06T15:34:45.947Z,318.17
2022-12-06T15:37:38.155Z,309.10
2022-12-06T15:40:02.137Z,309.60
2022-12-06T15:42:28.967Z,316.17
2022-12-06T15:44:55.912Z,310.20
2022-12-06T15:47:22.627Z,304.70
2022-12-06T15:49:51.798Z,310.33
2022-12-06T15:52:23.527Z,289.33
2022-12-06T15:54:50.733Z,285.60
2022-12-06T15:57:17.792Z,289.17
2022-12-06T15:59:44.497Z,264.77
2022-12-06T16:02:16.835Z,282.70
2022-12-06T16:04:44.583Z,290.95
2022-12-06T16:07:13.215Z,276.05
2022-12-06T16:09:44.102Z,277.27
2022-12-06T16:12:10.885Z,286.58
2022-12-06T16:14:37.630Z,313.73
2022-12-06T16:17:04.266Z,286.33
2022-12-06T16:19:50.947Z,289.70
2022-12-06T16:22:17.672Z,291.60
2022-12-06T16:24:46.194Z,270.27
2022-12-06T16:27:14.903Z,289.90
2022-12-06T16:29:41.542Z,293.23
2022-12-06T16:32:08.198Z,301.33
2022-12-06T16:34:34.847Z,321.17
2022-12-06T16:37:04.084Z,303.80
2022-12-06T16:39:33.646Z,305.15
2022-12-06T16:42:01.245Z,302.42
2022-12-06T16:44:27.911Z,339.20
2022-12-06T16:46:54.692Z,302.30
2022-12-06T16:52:10.762Z,302.97
2022-12-06T16:54:41.570Z,308.60
2022-12-06T16:57:10.131Z,344.05
2022-12-06T16:59:36.897Z,289.42
2022-12-06T17:02:08.507Z,298.60
2022-12-06T17:04:38.312Z,296.80
2022-12-06T17:07:05.037Z,299.65
2022-12-06T17:09:31.663Z,296.42
2022-12-06T17:12:12.667Z,288.30
2022-12-06T17:14:40.009Z,294.88
2022-12-06T17:17:06.591Z,300.27
2022-12-06T17:19:33.638Z,305.98
2022-12-06T17:22:06.181Z,297.88
2022-12-06T17:24:33.375Z,291.70
2022-12-06T17:27:00.023Z,285.55
2022-12-06T17:29:28.513Z,300.52
2022-12-06T17:31:56.322Z,301.27
2022-12-06T17:34:25.518Z,290.85
2022-12-06T17:36:52.642Z,285.23
2022-12-06T17:39:21.019Z,284.73
2022-12-06T17:42:06.387Z,295.88
2022-12-06T17:44:34.074Z,298.30
2022-12-06T17:47:01.522Z,299.58
2022-12-06T17:49:28.848Z,299.98
2022-12-06T17:51:55.850Z,306.52
2022-12-06T17:54:22.949Z,296.30
2022-12-06T17:56:53.992Z,312.40
2022-12-06T17:59:23.213Z,308.40
2022-12-06T18:02:13.992Z,302.45
2022-12-06T18:04:37.762Z,288.60
2022-12-06T18:07:04.304Z,283.48
2022-12-06T18:09:31.203Z,271.35
2022-12-06T18:11:57.969Z,280.50
2022-12-06T18:14:24.674Z,256.00
2022-12-06T18:16:51.399Z,254.25
2022-12-06T18:19:25.216Z,259.88
2022-12-06T18:21:52.293Z,262.35
2022-12-06T18:24:21.885Z,253.27
2022-12-06T18:26:50.148Z,240.98
2022-12-06T18:29:19.712Z,239.68
2022-12-06T18:31:46.771Z,250.63
2022-12-06T18:34:13.869Z,247.60
2022-12-06T18:36:40.927Z,248.80
2022-12-06T18:39:14.876Z,254.55
2022-12-06T18:41:45.213Z,244.43
2022-12-06T18:44:12.612Z,255.45
2022-12-06T18:46:41.519Z,240.80
2022-12-06T18:49:10.463Z,253.50
2022-12-06T18:51:38.589Z,262.40
2022-12-06T18:54:06.306Z,261.00
2022-12-06T18:56:34.133Z,249.63
2022-12-06T18:59:03.121Z,260.47
2022-12-06T19:01:32.566Z,254.57
2022-12-06T19:04:01.110Z,245.17
2022-12-06T19:06:31.536Z,248.05
2022-12-06T19:09:02.298Z,250.85
2022-12-06T19:11:29.034Z,233.95
2022-12-06T19:14:00.352Z,249.75
2022-12-06T19:16:37.832Z,246.63
2022-12-06T19:19:12.703Z,241.55
2022-12-06T19:21:43.979Z,227.65
2022-12-06T19:24:12.516Z,229.43
2022-12-06T19:26:39.216Z,239.93
2022-12-06T19:29:05.891Z,229.03
2022-12-06T19:31:33.226Z,247.50
2022-12-06T19:34:00.113Z,237.23
2022-12-06T19:36:28.879Z,240.77
2022-12-06T19:39:00.066Z,234.05
2022-12-06T19:41:27.468Z,223.07
2022-12-06T19:44:12.835Z,229.27
2022-12-06T19:46:42.818Z,229.15
2022-12-06T19:49:10.301Z,236.07
2022-12-06T19:51:42.344Z,231.55
2022-12-06T19:54:11.740Z,239.45
2022-12-06T19:56:39.276Z,237.15
2022-12-06T19:59:12.944Z,230.47
2022-12-06T20:01:41.824Z,238.27
2022-12-06T20:04:09.191Z,236.75
2022-12-06T20:06:36.611Z,235.52
2022-12-06T20:09:04.054Z,238.88
2022-12-06T20:11:49.415Z,238.02
2022-12-06T20:14:21.342Z,235.90
2022-12-06T20:16:48.305Z,232.35
2022-12-06T20:19:16.398Z,229.25
2022-12-06T20:21:46.742Z,231.35
2022-12-06T20:24:16.644Z,229.75
2022-12-06T20:26:43.242Z,248.93
2022-12-06T20:29:10.460Z,236.10
2022-12-06T20:31:37.212Z,232.73
2022-12-06T20:34:10.263Z,241.40
2022-12-06T20:36:41.668Z,238.02
2022-12-06T20:39:08.615Z,238.67
2022-12-06T20:41:35.254Z,233.75
2022-12-06T20:44:02.695Z,235.63
2022-12-06T20:46:31.206Z,250.07
2022-12-06T20:49:03.740Z,221.40
2022-12-06T20:51:31.418Z,224.32
2022-12-06T20:54:00.462Z,227.80
2022-12-06T20:56:30.306Z,238.48
2022-12-06T20:58:58.699Z,233.85
2022-12-06T21:01:27.953Z,239.73
2022-12-06T21:03:55.044Z,255.93
2022-12-06T21:06:24.045Z,257.63
2022-12-06T21:08:51.604Z,255.70
2022-12-06T21:11:23.805Z,257.52
2022-12-06T21:13:53.460Z,260.08
2022-12-06T21:16:28.582Z,254.77
2022-12-06T21:19:03.686Z,279.67
2022-12-06T21:21:35.514Z,265.83
2022-12-06T21:24:04.321Z,276.60
2022-12-06T21:26:31.036Z,267.13
2022-12-06T21:28:57.953Z,270.55
2022-12-06T21:31:36.065Z,284.60
2022-12-06T21:34:03.077Z,289.70
2022-12-06T21:36:30.007Z,284.23
2022-12-06T21:38:58.167Z,301.17
2022-12-06T21:41:25.491Z,293.17
2022-12-06T21:43:52.529Z,291.85
2022-12-06T21:46:22.955Z,300.55
2022-12-06T21:48:51.510Z,299.83
2022-12-06T21:51:18.908Z,300.05
2022-12-06T21:53:45.709Z,307.48
2022-12-06T21:56:15.545Z,303.83
2022-12-06T21:58:42.215Z,304.65
2022-12-06T22:01:11.313Z,304.60
2022-12-06T22:03:38.937Z,311.10
2022-12-06T22:06:07.870Z,319.75
2022-12-06T22:08:34.904Z,312.25
2022-12-06T22:11:06.338Z,316.70
2022-12-06T22:13:32.917Z,309.10
2022-12-06T22:16:06.869Z,298.30
2022-12-06T22:18:37.735Z,308.77
2022-12-06T22:21:22.409Z,307.42
2022-12-06T22:23:49.332Z,307.80
2022-12-06T22:26:18.785Z,320.35
2022-12-06T22:28:46.100Z,318.88
2022-12-06T22:31:19.048Z,323.83
2022-12-06T22:33:46.700Z,328.55
2022-12-06T22:36:14.204Z,318.75
2022-12-06T22:38:41.037Z,313.52
2022-12-06T22:41:08.783Z,317.85
2022-12-06T22:43:35.658Z,318.27
2022-12-06T22:46:14.393Z,312.15
2022-12-06T22:48:42.713Z,311.60
2022-12-06T22:51:14.420Z,315.83
2022-12-06T22:53:43.349Z,318.38
2022-12-06T22:56:10.340Z,322.27
2022-12-06T22:58:37.796Z,322.67
2022-12-06T23:01:16.512Z,316.73
2022-12-06T23:03:48.452Z,335.80
2022-12-06T23:06:17.320Z,344.23
2022-12-06T23:08:44.320Z,344.30
2022-12-06T23:11:13.762Z,333.58
2022-12-06T23:13:40.891Z,335.83
2022-12-06T23:16:12.349Z,336.02
2022-12-06T23:18:39.079Z,352.02
2022-12-06T23:21:20.360Z,357.47
2022-12-06T23:23:49.654Z,363.30
2022-12-06T23:26:18.956Z,373.47
2022-12-06T23:28:46.399Z,370.98
2022-12-06T23:31:17.422Z,368.00
2022-12-06T23:33:46.141Z,363.83
2022-12-06T23:36:21.429Z,356.48
2022-12-06T23:38:48.566Z,359.17
2022-12-06T23:41:17.940Z,357.67
2022-12-06T23:43:45.280Z,355.05
2022-12-06T23:46:20.600Z,362.73
2022-12-06T23:48:48.731Z,365.85
2022-12-06T23:51:18.958Z,349.50
2022-12-06T23:53:50.331Z,348.53
2022-12-06T23:56:18.603Z,344.02
2022-12-06T23:58:45.957Z,348.80
